createdAt,value
2022-12-15T07:05:22.379Z,64.17
2022-12-15T07:10:24.522Z,58.28
2022-12-15T07:15:26.507Z,59.92
2022-12-15T07:20:29.151Z,60.03
2022-12-15T07:25:31.178Z,58.17
2022-12-15T07:30:38.465Z,59.78
2022-12-15T07:35:41.206Z,65.33
2022-12-15T07:40:43.204Z,64.00
2022-12-15T07:45:51.161Z,60.88
2022-12-15T07:51:02.879Z,63.40
2022-12-15T07:56:10.371Z,59.70
2022-12-15T08:01:13.948Z,67.15
2022-12-15T08:06:16.250Z,59.43
2022-12-15T08:11:20.516Z,63.08
2022-12-15T08:16:22.657Z,65.32
2022-12-15T08:21:24.699Z,67.13
2022-12-15T08:26:30.723Z,66.87
2022-12-15T08:31:33.909Z,61.95
2022-12-15T08:36:36.012Z,70.30
2022-12-15T08:41:38.101Z,64.47
2022-12-15T08:46:40.123Z,59.88
2022-12-15T08:51:42.176Z,62.05
2022-12-15T08:56:44.219Z,58.03
2022-12-15T09:01:46.578Z,56.22
2022-12-15T09:06:50.793Z,60.00
2022-12-15T09:11:52.995Z,55.17
2022-12-15T09:16:55.141Z,56.73
2022-12-15T09:21:57.257Z,56.05
2022-12-15T09:26:59.310Z,60.20
2022-12-15T09:32:01.904Z,63.37
2022-12-15T09:37:04.043Z,62.30
2022-12-15T09:42:06.066Z,55.85
2022-12-15T09:47:20.479Z,61.93
2022-12-15T09:52:29.228Z,54.33
2022-12-15T09:57:44.684Z,62.45
2022-12-15T10:03:28.296Z,62.33
2022-12-15T10:08:40.813Z,66.13
2022-12-15T10:14:11.902Z,63.22
2022-12-15T10:19:24.083Z,65.70
2022-12-15T10:25:09.153Z,55.80
2022-12-15T10:30:02.498Z,61.90
2022-12-15T10:35:29.065Z,58.22
2022-12-15T10:40:50.516Z,60.00
2022-12-15T10:46:14.927Z,60.92
2022-12-15T10:51:22.050Z,57.45
2022-12-15T10:56:33.455Z,58.97
2022-12-15T11:01:36.246Z,59.67
2022-12-15T11:06:42.559Z,54.78
2022-12-15T11:12:11.971Z,56.03
2022-12-15T11:17:22.928Z,57.93
2022-12-15T11:22:53.016Z,57.97
2022-12-15T11:27:58.022Z,58.22
2022-12-15T11:33:01.418Z,58.57
2022-12-15T11:38:31.652Z,58.40
2022-12-15T11:44:15.854Z,58.83
2022-12-15T11:49:26.602Z,54.67
2022-12-15T11:54:37.474Z,59.43
2022-12-15T11:59:49.347Z,61.42
2022-12-15T12:05:18.674Z,61.50
2022-12-15T12:10:42.713Z,63.23
2022-12-15T12:16:20.006Z,62.17
2022-12-15T12:21:29.243Z,63.87
2022-12-15T12:26:44.169Z,61.47
2022-12-15T12:31:51.928Z,63.47
2022-12-15T12:36:58.831Z,61.05
2022-12-15T12:42:21.292Z,70.10
2022-12-15T12:47:28.132Z,72.17
2022-12-15T12:52:37.002Z,80.68
2022-12-15T12:57:38.950Z,69.85
2022-12-15T13:02:47.787Z,78.53
2022-12-15T13:08:10.855Z,72.45
2022-12-15T13:13:37.532Z,75.45
2022-12-15T13:19:06.886Z,73.10
2022-12-15T13:24:27.356Z,68.05
2022-12-15T13:29:29.531Z,64.30
2022-12-15T13:34:41.064Z,68.37
2022-12-15T13:39:55.787Z,70.83
2022-12-15T13:45:11.822Z,65.05
2022-12-15T13:50:29.682Z,62.55
2022-12-15T13:55:37.394Z,62.80
2022-12-15T14:00:47.568Z,70.85
2022-12-15T14:05:53.850Z,66.03
2022-12-15T14:10:58.643Z,68.33
2022-12-15T14:16:03.580Z,70.78
2022-12-15T14:21:08.170Z,69.43
2022-12-15T14:26:11.967Z,63.63
2022-12-15T14:31:17.016Z,66.13
2022-12-15T14:36:20.703Z,63.85
2022-12-15T14:41:45.373Z,68.47
2022-12-15T14:46:57.748Z,67.13
2022-12-15T14:52:03.083Z,67.60
2022-12-15T14:57:11.131Z,66.50
2022-12-15T15:02:25.862Z,62.77
2022-12-15T15:07:29.400Z,67.60
2022-12-15T15:12:48.877Z,68.72
2022-12-15T15:17:56.724Z,66.83
2022-12-15T15:23:03.907Z,64.80
2022-12-15T15:28:17.407Z,64.10
2022-12-15T15:33:20.034Z,62.72
2022-12-15T15:38:29.272Z,71.90
2022-12-15T15:43:31.465Z,65.93
2022-12-15T15:48:38.611Z,61.13
2022-12-15T15:53:41.107Z,65.80
2022-12-15T15:58:46.741Z,62.95
2022-12-15T16:03:48.877Z,63.00
2022-12-15T16:08:53.951Z,63.43
2022-12-15T16:13:56.770Z,67.70
2022-12-15T16:18:58.908Z,64.05
2022-12-15T16:24:08.555Z,59.72
2022-12-15T16:29:20.100Z,58.93
2022-12-15T16:34:24.700Z,47.97
2022-12-15T16:39:35.039Z,51.17
2022-12-15T16:44:37.122Z,48.73
2022-12-15T16:49:40.443Z,55.92
2022-12-15T16:54:46.383Z,51.42
2022-12-15T16:59:49.850Z,43.57
2022-12-15T17:04:52.691Z,40.47
2022-12-15T17:09:55.100Z,45.00
2022-12-15T17:14:58.418Z,44.30
2022-12-15T17:25:46.116Z,46.30
2022-12-15T17:30:48.774Z,46.30
2022-12-15T17:35:55.053Z,42.93
2022-12-15T17:40:57.378Z,47.55
2022-12-15T17:45:59.472Z,42.22
2022-12-15T17:51:01.814Z,43.37
2022-12-15T17:56:04.816Z,42.27
2022-12-15T18:01:10.459Z,49.90
2022-12-15T18:06:15.401Z,47.30
2022-12-15T18:11:17.480Z,41.53
2022-12-15T18:16:19.554Z,46.17
2022-12-15T18:21:21.675Z,48.08
2022-12-15T18:26:23.845Z,46.83
2022-12-15T18:31:27.922Z,42.33
2022-12-15T18:36:30.089Z,43.83
2022-12-15T18:41:32.756Z,41.97
2022-12-15T18:46:34.882Z,42.83
2022-12-15T18:51:37.523Z,41.08
2022-12-15T18:56:39.575Z,38.85
2022-12-15T19:01:43.129Z,37.27
2022-12-15T19:06:45.432Z,40.08
2022-12-15T19:12:17.825Z,38.65
2022-12-15T19:17:40.645Z,35.13
2022-12-15T19:22:44.205Z,32.85
2022-12-15T19:27:46.292Z,31.35
2022-12-15T19:32:48.319Z,28.13
2022-12-15T19:37:50.789Z,31.67
2022-12-15T19:42:55.492Z,33.45
2022-12-15T19:47:58.616Z,30.48
2022-12-15T19:53:03.038Z,31.87
2022-12-15T19:58:27.744Z,36.13
2022-12-15T20:03:31.326Z,31.33
2022-12-15T20:08:36.876Z,32.87
2022-12-15T20:13:38.970Z,32.03
2022-12-15T20:18:41.062Z,30.98
2022-12-15T20:23:57.174Z,29.93
2022-12-15T20:28:59.414Z,26.87
2022-12-15T20:34:01.467Z,26.95
2022-12-15T20:39:04.453Z,27.27
2022-12-15T20:44:12.900Z,31.73
2022-12-15T20:49:21.013Z,27.90
2022-12-15T20:54:23.175Z,28.00
2022-12-15T20:59:25.353Z,25.30
2022-12-15T21:04:30.513Z,27.95
2022-12-15T21:09:33.251Z,22.95
2022-12-15T21:14:35.299Z,22.13
2022-12-15T21:19:37.299Z,21.13
2022-12-15T21:24:39.408Z,21.23
2022-12-15T21:29:44.970Z,21.62
2022-12-15T21:34:50.013Z,19.87
2022-12-15T21:39:55.328Z,23.05
2022-12-15T21:44:57.404Z,19.98
2022-12-15T21:50:01.088Z,20.87
2022-12-15T21:55:06.014Z,20.60
